sensor_id;sensor_type;location;lat;lon;timestamp;temperature;humidity
1994;DHT22;998;49.906;10.908;2023-04-03T00:00:15;4.20;99.90
1994;DHT22;998;49.906;10.908;2023-04-03T00:02:42;4.10;99.90
1994;DHT22;998;49.906;10.908;2023-04-03T00:05:10;4.00;99.90
1994;DHT22;998;49.906;10.908;2023-04-03T00:07:37;4.00;99.90
1994;DHT22;998;49.906;10.908;2023-04-03T00:10:06;4.00;99.90
1994;DHT22;998;49.906;10.908;2023-04-03T00:12:35;4.10;99.90
1994;DHT22;998;49.906;10.908;2023-04-03T00:15:03;4.20;99.90
1994;DHT22;998;49.906;10.908;2023-04-03T00:17:30;4.10;99.90
1994;DHT22;998;49.906;10.908;2023-04-03T00:19:58;4.10;99.90
1994;DHT22;998;49.906;10.908;2023-04-03T00:22:25;4.00;99.90
1994;DHT22;998;49.906;10.908;2023-04-03T00:24:54;4.10;99.90
1994;DHT22;998;49.906;10.908;2023-04-03T00:27:21;4.20;99.90
1994;DHT22;998;49.906;10.908;2023-04-03T00:29:50;4.30;99.90
1994;DHT22;998;49.906;10.908;2023-04-03T00:32:18;4.30;99.90
1994;DHT22;998;49.906;10.908;2023-04-03T00:34:45;4.40;99.90
1994;DHT22;998;49.906;10.908;2023-04-03T00:37:12;4.40;99.90
1994;DHT22;998;49.906;10.908;2023-04-03T00:39:40;4.50;99.90
1994;DHT22;998;49.906;10.908;2023-04-03T00:42:07;4.40;99.90
1994;DHT22;998;49.906;10.908;2023-04-03T00:47:41;4.50;99.90
1994;DHT22;998;49.906;10.908;2023-04-03T00:50:09;4.40;99.90
1994;DHT22;998;49.906;10.908;2023-04-03T00:52:37;4.30;99.90
1994;DHT22;998;49.906;10.908;2023-04-03T00:55:08;4.20;99.90
1994;DHT22;998;49.906;10.908;2023-04-03T00:57:36;4.10;99.90
1994;DHT22;998;49.906;10.908;2023-04-03T01:00:08;4.10;99.90
1994;DHT22;998;49.906;10.908;2023-04-03T01:02:36;4.10;99.90
1994;DHT22;998;49.906;10.908;2023-04-03T01:05:08;4.10;99.90
1994;DHT22;998;49.906;10.908;2023-04-03T01:07:36;4.00;99.90
1994;DHT22;998;49.906;10.908;2023-04-03T01:10:07;4.00;99.90
1994;DHT22;998;49.906;10.908;2023-04-03T01:12:36;4.00;99.90
1994;DHT22;998;49.906;10.908;2023-04-03T01:15:07;3.90;99.90
1994;DHT22;998;49.906;10.908;2023-04-03T01:17:36;3.90;99.90
1994;DHT22;998;49.906;10.908;2023-04-03T01:20:40;3.90;99.90
1994;DHT22;998;49.906;10.908;2023-04-03T01:23:21;3.90;99.90
1994;DHT22;998;49.906;10.908;2023-04-03T01:25:52;4.00;99.90
1994;DHT22;998;49.906;10.908;2023-04-03T01:28:22;4.00;99.90
1994;DHT22;998;49.906;10.908;2023-04-03T01:30:58;3.90;99.90
1994;DHT22;998;49.906;10.908;2023-04-03T01:33:29;3.90;99.90
1994;DHT22;998;49.906;10.908;2023-04-03T01:35:56;3.80;99.90
1994;DHT22;998;49.906;10.908;2023-04-03T01:38:24;3.90;99.90
1994;DHT22;998;49.906;10.908;2023-04-03T01:40:51;4.00;99.90
1994;DHT22;998;49.906;10.908;2023-04-03T01:43:19;4.10;99.90
1994;DHT22;998;49.906;10.908;2023-04-03T01:45:46;4.10;99.90
1994;DHT22;998;49.906;10.908;2023-04-03T01:48:15;4.10;99.90
1994;DHT22;998;49.906;10.908;2023-04-03T01:50:44;4.00;99.90
1994;DHT22;998;49.906;10.908;2023-04-03T01:53:11;4.10;99.90
1994;DHT22;998;49.906;10.908;2023-04-03T01:55:39;4.10;99.90
1994;DHT22;998;49.906;10.908;2023-04-03T01:58:06;4.20;99.90
1994;DHT22;998;49.906;10.908;2023-04-03T02:00:33;4.10;99.90
1994;DHT22;998;49.906;10.908;2023-04-03T02:03:02;4.10;99.90
1994;DHT22;998;49.906;10.908;2023-04-03T02:05:29;4.10;99.90
1994;DHT22;998;49.906;10.908;2023-04-03T02:07:58;4.20;99.90
1994;DHT22;998;49.906;10.908;2023-04-03T02:10:25;4.30;99.90
1994;DHT22;998;49.906;10.908;2023-04-03T02:12:52;4.20;99.90
1994;DHT22;998;49.906;10.908;2023-04-03T02:15:20;4.20;99.90
1994;DHT22;998;49.906;10.908;2023-04-03T02:17:47;4.20;99.90
1994;DHT22;998;49.906;10.908;2023-04-03T02:20:15;4.20;99.90
1994;DHT22;998;49.906;10.908;2023-04-03T02:22:42;4.30;99.90
1994;DHT22;998;49.906;10.908;2023-04-03T02:25:11;4.30;99.90
1994;DHT22;998;49.906;10.908;2023-04-03T02:27:38;4.20;99.90
1994;DHT22;998;49.906;10.908;2023-04-03T02:30:07;4.30;99.90
1994;DHT22;998;49.906;10.908;2023-04-03T02:32:36;4.30;99.90
1994;DHT22;998;49.906;10.908;2023-04-03T02:35:04;4.30;99.90
1994;DHT22;998;49.906;10.908;2023-04-03T02:37:31;4.30;99.90
1994;DHT22;998;49.906;10.908;2023-04-03T02:39:59;4.30;99.90
1994;DHT22;998;49.906;10.908;2023-04-03T02:42:28;4.40;99.90
1994;DHT22;998;49.906;10.908;2023-04-03T02:44:55;4.30;99.90
1994;DHT22;998;49.906;10.908;2023-04-03T02:47:23;4.30;99.90
1994;DHT22;998;49.906;10.908;2023-04-03T02:49:50;4.30;99.90
1994;DHT22;998;49.906;10.908;2023-04-03T02:52:18;4.30;99.90
1994;DHT22;998;49.906;10.908;2023-04-03T02:54:46;4.40;99.90
1994;DHT22;998;49.906;10.908;2023-04-03T02:57:13;4.30;99.90
1994;DHT22;998;49.906;10.908;2023-04-03T02:59:42;4.40;99.90
1994;DHT22;998;49.906;10.908;2023-04-03T03:02:10;4.40;99.90
1994;DHT22;998;49.906;10.908;2023-04-03T03:04:37;4.40;99.90
1994;DHT22;998;49.906;10.908;2023-04-03T03:07:05;4.40;99.90
1994;DHT22;998;49.906;10.908;2023-04-03T03:09:32;4.40;99.90
1994;DHT22;998;49.906;10.908;2023-04-03T03:12:00;4.30;99.90
1994;DHT22;998;49.906;10.908;2023-04-03T03:14:27;4.30;99.90
1994;DHT22;998;49.906;10.908;2023-04-03T03:16:56;4.30;99.90
1994;DHT22;998;49.906;10.908;2023-04-03T03:19:23;4.30;99.90
1994;DHT22;998;49.906;10.908;2023-04-03T03:21:51;4.30;99.90
1994;DHT22;998;49.906;10.908;2023-04-03T03:24:18;4.30;99.90
1994;DHT22;998;49.906;10.908;2023-04-03T03:26:45;4.30;99.90
1994;DHT22;998;49.906;10.908;2023-04-03T03:29:13;4.20;99.90
1994;DHT22;998;49.906;10.908;2023-04-03T03:31:40;4.20;99.90
1994;DHT22;998;49.906;10.908;2023-04-03T03:34:09;4.10;99.90
1994;DHT22;998;49.906;10.908;2023-04-03T03:36:36;4.20;99.90
1994;DHT22;998;49.906;10.908;2023-04-03T03:39:04;4.30;99.90
1994;DHT22;998;49.906;10.908;2023-04-03T03:41:31;4.30;99.90
1994;DHT22;998;49.906;10.908;2023-04-03T03:43:59;4.20;99.90
1994;DHT22;998;49.906;10.908;2023-04-03T03:46:27;4.30;99.90
1994;DHT22;998;49.906;10.908;2023-04-03T03:48:54;4.40;99.90
1994;DHT22;998;49.906;10.908;2023-04-03T03:51:23;4.30;99.90
1994;DHT22;998;49.906;10.908;2023-04-03T03:53:50;4.30;99.90
1994;DHT22;998;49.906;10.908;2023-04-03T03:56:18;4.40;99.90
1994;DHT22;998;49.906;10.908;2023-04-03T03:58:46;4.40;99.90
1994;DHT22;998;49.906;10.908;2023-04-03T04:01:13;4.40;99.90
1994;DHT22;998;49.906;10.908;2023-04-03T04:03:41;4.40;99.90
1994;DHT22;998;49.906;10.908;2023-04-03T04:06:08;4.30;99.90
1994;DHT22;998;49.906;10.908;2023-04-03T04:08:37;4.20;99.90
1994;DHT22;998;49.906;10.908;2023-04-03T04:11:04;4.30;99.90
1994;DHT22;998;49.906;10.908;2023-04-03T04:13:32;4.30;99.90
1994;DHT22;998;49.906;10.908;2023-04-03T04:15:59;4.20;99.90
1994;DHT22;998;49.906;10.908;2023-04-03T04:18:27;4.00;99.90
1994;DHT22;998;49.906;10.908;2023-04-03T04:20:54;3.90;99.90
1994;DHT22;998;49.906;10.908;2023-04-03T04:23:22;3.90;99.90
1994;DHT22;998;49.906;10.908;2023-04-03T04:25:51;3.90;99.90
1994;DHT22;998;49.906;10.908;2023-04-03T04:28:18;3.80;99.90
1994;DHT22;998;49.906;10.908;2023-04-03T04:30:46;3.80;99.90
1994;DHT22;998;49.906;10.908;2023-04-03T04:33:13;3.80;99.90
1994;DHT22;998;49.906;10.908;2023-04-03T04:35:42;3.80;99.90
1994;DHT22;998;49.906;10.908;2023-04-03T04:38:10;3.80;99.90
1994;DHT22;998;49.906;10.908;2023-04-03T04:40:37;3.70;99.90
1994;DHT22;998;49.906;10.908;2023-04-03T04:43:06;3.70;99.90
1994;DHT22;998;49.906;10.908;2023-04-03T04:45:33;3.70;99.90
1994;DHT22;998;49.906;10.908;2023-04-03T04:48:01;3.70;99.90
1994;DHT22;998;49.906;10.908;2023-04-03T04:50:28;3.70;99.90
1994;DHT22;998;49.906;10.908;2023-04-03T04:52:55;3.60;99.90
1994;DHT22;998;49.906;10.908;2023-04-03T04:55:23;3.70;99.90
1994;DHT22;998;49.906;10.908;2023-04-03T04:57:50;3.70;99.90
1994;DHT22;998;49.906;10.908;2023-04-03T05:00:20;3.70;99.90
1994;DHT22;998;49.906;10.908;2023-04-03T05:02:47;3.70;99.90
1994;DHT22;998;49.906;10.908;2023-04-03T05:05:15;3.60;99.90
1994;DHT22;998;49.906;10.908;2023-04-03T05:07:42;3.70;99.90
1994;DHT22;998;49.906;10.908;2023-04-03T05:10:10;3.70;99.90
1994;DHT22;998;49.906;10.908;2023-04-03T05:12:37;3.60;99.90
1994;DHT22;998;49.906;10.908;2023-04-03T05:15:06;3.50;99.90
1994;DHT22;998;49.906;10.908;2023-04-03T05:17:35;3.60;99.90
1994;DHT22;998;49.906;10.908;2023-04-03T05:20:03;3.50;99.90
1994;DHT22;998;49.906;10.908;2023-04-03T05:22:31;3.50;99.90
1994;DHT22;998;49.906;10.908;2023-04-03T05:24:58;3.50;99.90
1994;DHT22;998;49.906;10.908;2023-04-03T05:27:25;3.50;99.90
1994;DHT22;998;49.906;10.908;2023-04-03T05:29:54;3.50;99.90
1994;DHT22;998;49.906;10.908;2023-04-03T05:32:22;3.40;99.90
1994;DHT22;998;49.906;10.908;2023-04-03T05:34:51;3.50;99.90
1994;DHT22;998;49.906;10.908;2023-04-03T05:37:18;3.50;99.90
1994;DHT22;998;49.906;10.908;2023-04-03T05:39:46;3.50;99.90
1994;DHT22;998;49.906;10.908;2023-04-03T05:42:14;3.50;99.90
1994;DHT22;998;49.906;10.908;2023-04-03T05:44:41;3.50;99.90
1994;DHT22;998;49.906;10.908;2023-04-03T05:47:10;3.50;99.90
1994;DHT22;998;49.906;10.908;2023-04-03T05:49:37;3.40;99.90
1994;DHT22;998;49.906;10.908;2023-04-03T05:52:11;3.50;99.90
1994;DHT22;998;49.906;10.908;2023-04-03T05:54:44;3.50;99.90
1994;DHT22;998;49.906;10.908;2023-04-03T05:57:14;3.50;99.90
1994;DHT22;998;49.906;10.908;2023-04-03T05:59:42;3.50;99.90
1994;DHT22;998;49.906;10.908;2023-04-03T06:02:11;3.50;99.90
1994;DHT22;998;49.906;10.908;2023-04-03T06:04:38;3.70;99.90
1994;DHT22;998;49.906;10.908;2023-04-03T06:07:11;3.70;99.90
1994;DHT22;998;49.906;10.908;2023-04-03T06:09:39;3.70;99.90
1994;DHT22;998;49.906;10.908;2023-04-03T06:12:07;3.70;99.90
1994;DHT22;998;49.906;10.908;2023-04-03T06:14:34;3.70;99.90
1994;DHT22;998;49.906;10.908;2023-04-03T06:17:02;3.80;99.90
1994;DHT22;998;49.906;10.908;2023-04-03T06:19:30;3.80;99.90
1994;DHT22;998;49.906;10.908;2023-04-03T06:21:57;3.70;99.90
1994;DHT22;998;49.906;10.908;2023-04-03T06:24:26;3.70;99.90
1994;DHT22;998;49.906;10.908;2023-04-03T06:26:54;3.90;99.90
1994;DHT22;998;49.906;10.908;2023-04-03T06:29:22;3.80;99.90
1994;DHT22;998;49.906;10.908;2023-04-03T06:31:49;3.70;99.90
1994;DHT22;998;49.906;10.908;2023-04-03T06:34:17;3.80;99.90
1994;DHT22;998;49.906;10.908;2023-04-03T06:36:45;3.60;99.90
1994;DHT22;998;49.906;10.908;2023-04-03T06:39:14;3.50;99.90
1994;DHT22;998;49.906;10.908;2023-04-03T06:41:43;3.60;99.90
1994;DHT22;998;49.906;10.908;2023-04-03T06:44:11;3.60;99.90
1994;DHT22;998;49.906;10.908;2023-04-03T06:46:41;3.70;99.90
1994;DHT22;998;49.906;10.908;2023-04-03T06:49:09;3.80;99.90
1994;DHT22;998;49.906;10.908;2023-04-03T06:51:37;3.70;99.90
1994;DHT22;998;49.906;10.908;2023-04-03T06:54:05;3.80;99.90
1994;DHT22;998;49.906;10.908;2023-04-03T06:56:34;3.90;99.90
1994;DHT22;998;49.906;10.908;2023-04-03T06:59:02;3.90;99.90
1994;DHT22;998;49.906;10.908;2023-04-03T07:01:30;3.80;99.90
1994;DHT22;998;49.906;10.908;2023-04-03T07:03:57;3.90;99.90
1994;DHT22;998;49.906;10.908;2023-04-03T07:06:25;3.90;99.90
1994;DHT22;998;49.906;10.908;2023-04-03T07:08:54;3.90;99.90
1994;DHT22;998;49.906;10.908;2023-04-03T07:11:21;3.90;99.90
1994;DHT22;998;49.906;10.908;2023-04-03T07:13:48;3.80;99.90
1994;DHT22;998;49.906;10.908;2023-04-03T07:16:17;3.90;99.90
1994;DHT22;998;49.906;10.908;2023-04-03T07:18:44;3.90;99.90
1994;DHT22;998;49.906;10.908;2023-04-03T07:21:12;3.90;99.90
1994;DHT22;998;49.906;10.908;2023-04-03T07:23:39;4.00;99.90
1994;DHT22;998;49.906;10.908;2023-04-03T07:26:06;4.10;99.90
1994;DHT22;998;49.906;10.908;2023-04-03T07:28:35;3.90;99.90
1994;DHT22;998;49.906;10.908;2023-04-03T07:31:04;3.90;99.90
1994;DHT22;998;49.906;10.908;2023-04-03T07:33:35;4.00;99.90
1994;DHT22;998;49.906;10.908;2023-04-03T07:36:03;4.00;99.90
1994;DHT22;998;49.906;10.908;2023-04-03T07:38:33;4.10;99.90
1994;DHT22;998;49.906;10.908;2023-04-03T07:41:02;4.10;99.90
1994;DHT22;998;49.906;10.908;2023-04-03T07:43:29;4.10;99.90
1994;DHT22;998;49.906;10.908;2023-04-03T07:45:57;4.00;99.90
1994;DHT22;998;49.906;10.908;2023-04-03T07:48:25;4.00;99.90
1994;DHT22;998;49.906;10.908;2023-04-03T07:50:58;3.80;99.90
1994;DHT22;998;49.906;10.908;2023-04-03T07:53:25;3.90;99.90
1994;DHT22;998;49.906;10.908;2023-04-03T07:55:53;3.80;99.90
1994;DHT22;998;49.906;10.908;2023-04-03T07:58:21;3.80;99.90
1994;DHT22;998;49.906;10.908;2023-04-03T08:00:49;3.90;99.90
1994;DHT22;998;49.906;10.908;2023-04-03T08:03:16;3.90;99.90
1994;DHT22;998;49.906;10.908;2023-04-03T08:05:46;4.00;99.90
1994;DHT22;998;49.906;10.908;2023-04-03T08:08:17;4.00;99.90
1994;DHT22;998;49.906;10.908;2023-04-03T08:10:48;4.10;99.90
1994;DHT22;998;49.906;10.908;2023-04-03T08:13:16;4.10;99.90
1994;DHT22;998;49.906;10.908;2023-04-03T08:15:43;4.10;99.90
1994;DHT22;998;49.906;10.908;2023-04-03T08:18:11;4.10;99.90
1994;DHT22;998;49.906;10.908;2023-04-03T08:20:38;4.00;99.90
1994;DHT22;998;49.906;10.908;2023-04-03T08:23:07;4.00;99.90
1994;DHT22;998;49.906;10.908;2023-04-03T08:25:39;4.00;99.90
1994;DHT22;998;49.906;10.908;2023-04-03T08:28:07;4.00;99.90
1994;DHT22;998;49.906;10.908;2023-04-03T08:30:34;4.20;99.90
1994;DHT22;998;49.906;10.908;2023-04-03T08:33:02;4.30;99.90
1994;DHT22;998;49.906;10.908;2023-04-03T08:35:29;4.40;99.90
1994;DHT22;998;49.906;10.908;2023-04-03T08:37:57;4.50;99.90
1994;DHT22;998;49.906;10.908;2023-04-03T08:40:24;4.50;99.90
1994;DHT22;998;49.906;10.908;2023-04-03T08:43:03;4.50;99.90
1994;DHT22;998;49.906;10.908;2023-04-03T08:45:40;4.50;99.90
1994;DHT22;998;49.906;10.908;2023-04-03T08:48:13;4.50;99.90
1994;DHT22;998;49.906;10.908;2023-04-03T08:50:45;4.70;99.90
1994;DHT22;998;49.906;10.908;2023-04-03T08:53:16;4.80;99.90
1994;DHT22;998;49.906;10.908;2023-04-03T08:55:46;4.80;99.90
1994;DHT22;998;49.906;10.908;2023-04-03T08:58:19;4.80;99.90
1994;DHT22;998;49.906;10.908;2023-04-03T09:00:50;4.80;99.90
1994;DHT22;998;49.906;10.908;2023-04-03T09:03:19;4.80;99.90
1994;DHT22;998;49.906;10.908;2023-04-03T09:05:50;4.80;99.90
1994;DHT22;998;49.906;10.908;2023-04-03T09:08:25;4.80;99.90
1994;DHT22;998;49.906;10.908;2023-04-03T09:11:04;4.80;99.90
1994;DHT22;998;49.906;10.908;2023-04-03T09:13:41;4.80;99.90
1994;DHT22;998;49.906;10.908;2023-04-03T09:16:20;4.80;99.90
1994;DHT22;998;49.906;10.908;2023-04-03T09:18:55;4.80;99.90
1994;DHT22;998;49.906;10.908;2023-04-03T09:21:30;4.80;99.90
1994;DHT22;998;49.906;10.908;2023-04-03T09:24:01;4.80;99.90
1994;DHT22;998;49.906;10.908;2023-04-03T09:26:34;4.90;99.90
1994;DHT22;998;49.906;10.908;2023-04-03T09:29:07;5.10;99.90
1994;DHT22;998;49.906;10.908;2023-04-03T09:31:38;5.10;99.90
1994;DHT22;998;49.906;10.908;2023-04-03T09:34:10;5.20;99.90
1994;DHT22;998;49.906;10.908;2023-04-03T09:36:42;5.20;99.90
1994;DHT22;998;49.906;10.908;2023-04-03T09:39:12;5.20;99.90
1994;DHT22;998;49.906;10.908;2023-04-03T09:41:40;5.30;99.90
1994;DHT22;998;49.906;10.908;2023-04-03T09:44:23;5.30;99.90
1994;DHT22;998;49.906;10.908;2023-04-03T09:46:51;5.30;99.90
1994;DHT22;998;49.906;10.908;2023-04-03T09:49:19;5.20;99.90
1994;DHT22;998;49.906;10.908;2023-04-03T09:51:46;5.20;99.90
1994;DHT22;998;49.906;10.908;2023-04-03T09:54:29;5.30;99.90
1994;DHT22;998;49.906;10.908;2023-04-03T09:56:58;5.20;99.90
1994;DHT22;998;49.906;10.908;2023-04-03T09:59:30;5.30;99.90
1994;DHT22;998;49.906;10.908;2023-04-03T10:01:59;5.30;99.90
1994;DHT22;998;49.906;10.908;2023-04-03T10:04:37;5.20;99.90
1994;DHT22;998;49.906;10.908;2023-04-03T10:07:26;5.20;99.90
1994;DHT22;998;49.906;10.908;2023-04-03T10:09:55;5.20;99.90
1994;DHT22;998;49.906;10.908;2023-04-03T10:12:23;5.30;99.90
1994;DHT22;998;49.906;10.908;2023-04-03T10:14:56;5.40;99.90
1994;DHT22;998;49.906;10.908;2023-04-03T10:17:32;5.40;99.90
1994;DHT22;998;49.906;10.908;2023-04-03T10:20:09;5.20;99.90
1994;DHT22;998;49.906;10.908;2023-04-03T10:22:46;5.40;99.90
1994;DHT22;998;49.906;10.908;2023-04-03T10:25:21;5.40;99.90
1994;DHT22;998;49.906;10.908;2023-04-03T10:27:55;5.30;99.90
1994;DHT22;998;49.906;10.908;2023-04-03T10:30:34;5.30;99.90
1994;DHT22;998;49.906;10.908;2023-04-03T10:33:18;5.40;99.90
1994;DHT22;998;49.906;10.908;2023-04-03T10:35:56;5.50;99.90
1994;DHT22;998;49.906;10.908;2023-04-03T10:38:33;5.80;99.90
1994;DHT22;998;49.906;10.908;2023-04-03T10:41:06;5.80;99.90
1994;DHT22;998;49.906;10.908;2023-04-03T10:43:43;5.80;99.10
1994;DHT22;998;49.906;10.908;2023-04-03T10:46:17;5.90;99.90
1994;DHT22;998;49.906;10.908;2023-04-03T10:49:10;6.10;98.10
1994;DHT22;998;49.906;10.908;2023-04-03T10:51:43;6.20;98.70
1994;DHT22;998;49.906;10.908;2023-04-03T10:54:13;6.30;99.30
1994;DHT22;998;49.906;10.908;2023-04-03T10:56:47;6.50;98.10
1994;DHT22;998;49.906;10.908;2023-04-03T10:59:23;6.50;98.10
1994;DHT22;998;49.906;10.908;2023-04-03T11:01:56;6.60;97.90
1994;DHT22;998;49.906;10.908;2023-04-03T11:04:25;6.50;93.50
1994;DHT22;998;49.906;10.908;2023-04-03T11:06:58;6.50;93.50
1994;DHT22;998;49.906;10.908;2023-04-03T11:09:29;6.60;93.80
1994;DHT22;998;49.906;10.908;2023-04-03T11:12:02;6.60;94.50
1994;DHT22;998;49.906;10.908;2023-04-03T11:14:31;6.50;91.20
1994;DHT22;998;49.906;10.908;2023-04-03T11:17:09;6.70;91.40
1994;DHT22;998;49.906;10.908;2023-04-03T11:19:43;6.90;92.60
1994;DHT22;998;49.906;10.908;2023-04-03T11:22:19;7.00;91.00
1994;DHT22;998;49.906;10.908;2023-04-03T11:24:57;7.10;91.70
1994;DHT22;998;49.906;10.908;2023-04-03T11:27:27;7.50;92.30
1994;DHT22;998;49.906;10.908;2023-04-03T11:30:02;8.10;91.10
1994;DHT22;998;49.906;10.908;2023-04-03T11:32:56;8.60;91.00
1994;DHT22;998;49.906;10.908;2023-04-03T11:35:27;9.10;86.50
1994;DHT22;998;49.906;10.908;2023-04-03T11:37:54;8.70;84.40
1994;DHT22;998;49.906;10.908;2023-04-03T11:40:26;9.30;86.50
1994;DHT22;998;49.906;10.908;2023-04-03T11:42:55;9.40;79.20
1994;DHT22;998;49.906;10.908;2023-04-03T11:45:36;9.70;82.30
1994;DHT22;998;49.906;10.908;2023-04-03T11:48:23;9.90;80.30
1994;DHT22;998;49.906;10.908;2023-04-03T11:50:58;10.50;81.30
1994;DHT22;998;49.906;10.908;2023-04-03T11:53:36;11.00;77.00
1994;DHT22;998;49.906;10.908;2023-04-03T11:56:29;11.10;72.40
1994;DHT22;998;49.906;10.908;2023-04-03T11:59:25;11.50;74.50
1994;DHT22;998;49.906;10.908;2023-04-03T12:01:54;11.70;71.10
1994;DHT22;998;49.906;10.908;2023-04-03T12:04:25;11.90;71.30
1994;DHT22;998;49.906;10.908;2023-04-03T12:06:59;11.90;68.50
1994;DHT22;998;49.906;10.908;2023-04-03T12:12:36;11.60;67.60
1994;DHT22;998;49.906;10.908;2023-04-03T12:15:19;11.90;68.10
1994;DHT22;998;49.906;10.908;2023-04-03T12:17:47;12.40;67.60
1994;DHT22;998;49.906;10.908;2023-04-03T12:20:53;12.40;66.20
1994;DHT22;998;49.906;10.908;2023-04-03T12:23:26;12.10;62.80
1994;DHT22;998;49.906;10.908;2023-04-03T12:26:03;12.30;63.90
1994;DHT22;998;49.906;10.908;2023-04-03T12:28:37;12.30;62.40
1994;DHT22;998;49.906;10.908;2023-04-03T12:31:09;12.50;61.50
1994;DHT22;998;49.906;10.908;2023-04-03T12:33:47;12.20;59.60
1994;DHT22;998;49.906;10.908;2023-04-03T12:36:30;12.20;59.90
1994;DHT22;998;49.906;10.908;2023-04-03T12:39:25;12.80;60.60
1994;DHT22;998;49.906;10.908;2023-04-03T12:42:10;12.60;57.80
1994;DHT22;998;49.906;10.908;2023-04-03T12:44:47;12.60;60.40
1994;DHT22;998;49.906;10.908;2023-04-03T12:47:27;13.20;59.30
1994;DHT22;998;49.906;10.908;2023-04-03T12:49:55;13.10;57.40
1994;DHT22;998;49.906;10.908;2023-04-03T12:52:37;12.80;56.00
1994;DHT22;998;49.906;10.908;2023-04-03T12:55:15;13.40;58.50
1994;DHT22;998;49.906;10.908;2023-04-03T12:57:43;13.60;57.40
1994;DHT22;998;49.906;10.908;2023-04-03T13:00:22;13.90;57.40
1994;DHT22;998;49.906;10.908;2023-04-03T13:02:53;13.70;54.90
1994;DHT22;998;49.906;10.908;2023-04-03T13:05:21;13.30;54.10
1994;DHT22;998;49.906;10.908;2023-04-03T13:07:58;13.40;57.30
1994;DHT22;998;49.906;10.908;2023-04-03T13:10:25;13.10;53.40
1994;DHT22;998;49.906;10.908;2023-04-03T13:12:55;13.10;54.70
1994;DHT22;998;49.906;10.908;2023-04-03T13:15:27;13.30;56.40
1994;DHT22;998;49.906;10.908;2023-04-03T13:17:55;13.00;56.70
1994;DHT22;998;49.906;10.908;2023-04-03T13:20:25;12.70;55.50
1994;DHT22;998;49.906;10.908;2023-04-03T13:22:57;12.80;58.20
1994;DHT22;998;49.906;10.908;2023-04-03T13:25:29;12.90;56.40
1994;DHT22;998;49.906;10.908;2023-04-03T13:27:58;12.60;56.00
1994;DHT22;998;49.906;10.908;2023-04-03T13:30:29;12.20;55.40
1994;DHT22;998;49.906;10.908;2023-04-03T13:33:00;11.90;55.90
1994;DHT22;998;49.906;10.908;2023-04-03T13:35:35;11.90;56.00
1994;DHT22;998;49.906;10.908;2023-04-03T13:38:19;12.50;56.50
1994;DHT22;998;49.906;10.908;2023-04-03T13:40:50;13.10;57.30
1994;DHT22;998;49.906;10.908;2023-04-03T13:43:20;13.00;55.30
1994;DHT22;998;49.906;10.908;2023-04-03T13:45:57;13.30;57.90
1994;DHT22;998;49.906;10.908;2023-04-03T13:48:26;13.40;53.90
1994;DHT22;998;49.906;10.908;2023-04-03T13:50:57;13.00;54.40
1994;DHT22;998;49.906;10.908;2023-04-03T13:53:28;13.20;55.70
1994;DHT22;998;49.906;10.908;2023-04-03T13:56:00;13.40;54.80
1994;DHT22;998;49.906;10.908;2023-04-03T13:58:32;13.50;55.00
1994;DHT22;998;49.906;10.908;2023-04-03T14:01:07;13.30;54.30
1994;DHT22;998;49.906;10.908;2023-04-03T14:03:41;13.20;54.00
1994;DHT22;998;49.906;10.908;2023-04-03T14:06:11;13.30;56.30
1994;DHT22;998;49.906;10.908;2023-04-03T14:08:41;13.50;56.70
1994;DHT22;998;49.906;10.908;2023-04-03T14:11:13;13.20;55.00
1994;DHT22;998;49.906;10.908;2023-04-03T14:13:41;13.00;54.90
1994;DHT22;998;49.906;10.908;2023-04-03T14:16:13;13.10;55.30
1994;DHT22;998;49.906;10.908;2023-04-03T14:18:42;13.00;53.90
1994;DHT22;998;49.906;10.908;2023-04-03T14:21:12;12.60;53.90
1994;DHT22;998;49.906;10.908;2023-04-03T14:23:41;12.80;55.10
1994;DHT22;998;49.906;10.908;2023-04-03T14:26:12;13.10;55.70
1994;DHT22;998;49.906;10.908;2023-04-03T14:28:40;13.00;56.90
1994;DHT22;998;49.906;10.908;2023-04-03T14:31:08;12.70;54.40
1994;DHT22;998;49.906;10.908;2023-04-03T14:33:37;12.40;53.60
1994;DHT22;998;49.906;10.908;2023-04-03T14:36:12;12.20;54.30
1994;DHT22;998;49.906;10.908;2023-04-03T14:38:41;12.40;55.30
1994;DHT22;998;49.906;10.908;2023-04-03T14:41:11;12.60;55.50
1994;DHT22;998;49.906;10.908;2023-04-03T14:43:38;12.20;54.40
1994;DHT22;998;49.906;10.908;2023-04-03T14:46:12;12.30;55.00
1994;DHT22;998;49.906;10.908;2023-04-03T14:48:39;12.60;54.40
1994;DHT22;998;49.906;10.908;2023-04-03T14:51:06;12.40;53.70
1994;DHT22;998;49.906;10.908;2023-04-03T14:53:33;12.40;54.20
1994;DHT22;998;49.906;10.908;2023-04-03T14:56:08;12.50;53.70
1994;DHT22;998;49.906;10.908;2023-04-03T14:58:37;12.70;54.70
1994;DHT22;998;49.906;10.908;2023-04-03T15:01:04;12.90;54.50
1994;DHT22;998;49.906;10.908;2023-04-03T15:03:31;12.40;53.80
1994;DHT22;998;49.906;10.908;2023-04-03T15:05:58;12.00;53.90
1994;DHT22;998;49.906;10.908;2023-04-03T15:08:26;12.10;54.50
1994;DHT22;998;49.906;10.908;2023-04-03T15:10:55;11.80;54.30
1994;DHT22;998;49.906;10.908;2023-04-03T15:13:23;11.60;54.20
1994;DHT22;998;49.906;10.908;2023-04-03T15:15:51;11.50;54.10
1994;DHT22;998;49.906;10.908;2023-04-03T15:18:20;11.40;54.60
1994;DHT22;998;49.906;10.908;2023-04-03T15:20:48;10.90;54.50
1994;DHT22;998;49.906;10.908;2023-04-03T15:23:16;10.70;55.30
1994;DHT22;998;49.906;10.908;2023-04-03T15:25:44;10.60;55.60
1994;DHT22;998;49.906;10.908;2023-04-03T15:28:17;10.70;55.40
1994;DHT22;998;49.906;10.908;2023-04-03T15:30:46;10.50;57.20
1994;DHT22;998;49.906;10.908;2023-04-03T15:33:13;10.70;57.40
1994;DHT22;998;49.906;10.908;2023-04-03T15:35:41;10.90;57.00
1994;DHT22;998;49.906;10.908;2023-04-03T15:38:09;11.20;57.80
1994;DHT22;998;49.906;10.908;2023-04-03T15:40:36;11.50;56.60
1994;DHT22;998;49.906;10.908;2023-04-03T15:43:04;11.70;56.10
1994;DHT22;998;49.906;10.908;2023-04-03T15:45:32;11.50;55.70
1994;DHT22;998;49.906;10.908;2023-04-03T15:48:01;10.80;54.20
1994;DHT22;998;49.906;10.908;2023-04-03T15:50:28;10.70;55.10
1994;DHT22;998;49.906;10.908;2023-04-03T15:52:55;10.80;56.10
1994;DHT22;998;49.906;10.908;2023-04-03T15:55:24;11.10;56.50
1994;DHT22;998;49.906;10.908;2023-04-03T15:57:52;11.20;56.10
1994;DHT22;998;49.906;10.908;2023-04-03T16:00:19;11.00;55.20
1994;DHT22;998;49.906;10.908;2023-04-03T16:02:49;10.90;56.10
1994;DHT22;998;49.906;10.908;2023-04-03T16:05:19;10.90;56.40
1994;DHT22;998;49.906;10.908;2023-04-03T16:07:46;10.60;55.60
1994;DHT22;998;49.906;10.908;2023-04-03T16:10:16;10.00;56.60
1994;DHT22;998;49.906;10.908;2023-04-03T16:12:43;9.80;57.60
1994;DHT22;998;49.906;10.908;2023-04-03T16:15:11;10.00;57.60
1994;DHT22;998;49.906;10.908;2023-04-03T16:17:40;10.00;57.30
1994;DHT22;998;49.906;10.908;2023-04-03T16:20:09;9.60;58.30
1994;DHT22;998;49.906;10.908;2023-04-03T16:22:39;9.60;58.60
1994;DHT22;998;49.906;10.908;2023-04-03T16:25:08;9.30;58.10
1994;DHT22;998;49.906;10.908;2023-04-03T16:27:35;9.20;58.50
1994;DHT22;998;49.906;10.908;2023-04-03T16:30:05;9.00;59.40
1994;DHT22;998;49.906;10.908;2023-04-03T16:32:33;9.00;60.90
1994;DHT22;998;49.906;10.908;2023-04-03T16:35:00;9.20;61.00
1994;DHT22;998;49.906;10.908;2023-04-03T16:37:28;9.10;58.50
1994;DHT22;998;49.906;10.908;2023-04-03T16:39:57;9.10;57.90